Time;durP1;ratioP1;P1;durP2;ratioP2;P2;SDS_P1;SDS_P2;PMS_P1;PMS_P2;Temp;Humidity;BMP_temperature;BMP_pressure;BME280_temperature;BME280_humidity;BME280_pressure;Samples;Min_cycle;Max_cycle;Signal;HPM_P1;HPM_P2
2023/10/24 00:00:13;;;;;;;86.33;32.17;;;;;;;;;;5070369;28;20044;-63
2023/10/24 00:02:39;;;;;;;90.70;32.43;;;;;;;;;;5070563;28;20048;-62
2023/10/24 00:05:06;;;;;;;112.40;36.47;;;;;;;;;;5061459;28;20036;-62
2023/10/24 00:07:32;;;;;;;75.93;30.50;;;;;;;;;;5050057;28;20106;-62
2023/10/24 00:09:58;;;;;;;89.27;33.63;;;;;;;;;;5051561;28;20037;-63
2023/10/24 00:12:24;;;;;;;110.27;35.63;;;;;;;;;;5068496;28;20055;-62
2023/10/24 00:14:50;;;;;;;99.77;33.53;;;;;;;;;;5070177;28;20041;-63
2023/10/24 00:17:16;;;;;;;86.17;31.73;;;;;;;;;;5070034;28;20396;-62
2023/10/24 00:19:42;;;;;;;73.23;29.90;;;;;;;;;;5070010;28;20059;-63
2023/10/24 00:22:08;;;;;;;98.90;33.07;;;;;;;;;;5066917;28;20037;-63
2023/10/24 00:24:34;;;;;;;109.53;33.37;;;;;;;;;;5070231;28;20131;-63
2023/10/24 00:27:00;;;;;;;76.77;29.73;;;;;;;;;;5069889;28;20127;-62
2023/10/24 00:29:26;;;;;;;92.77;32.53;;;;;;;;;;5069565;28;20048;-62
2023/10/24 00:31:52;;;;;;;62.20;27.57;;;;;;;;;;5070016;28;20047;-63
2023/10/24 00:34:18;;;;;;;98.20;33.37;;;;;;;;;;5069233;28;20466;-63
2023/10/24 00:36:44;;;;;;;122.47;37.47;;;;;;;;;;5060117;28;20056;-63
2023/10/24 00:39:10;;;;;;;91.27;32.00;;;;;;;;;;5066683;28;20593;-63
2023/10/24 00:41:36;;;;;;;89.83;31.80;;;;;;;;;;5069411;28;20071;-62
2023/10/24 00:44:02;;;;;;;114.50;38.27;;;;;;;;;;5068935;28;20092;-63
2023/10/24 00:46:28;;;;;;;82.53;30.50;;;;;;;;;;5069239;28;20076;-63
2023/10/24 00:48:54;;;;;;;124.97;37.70;;;;;;;;;;5069634;28;20082;-63
2023/10/24 00:51:21;;;;;;;76.90;29.63;;;;;;;;;;5059825;28;20049;-63
2023/10/24 00:53:47;;;;;;;58.23;26.70;;;;;;;;;;5049152;28;20051;-63
2023/10/24 00:56:13;;;;;;;76.27;28.33;;;;;;;;;;5049304;28;20076;-63
2023/10/24 00:58:40;;;;;;;87.43;31.60;;;;;;;;;;5048808;28;20563;-63
2023/10/24 01:01:10;;;;;;;83.70;30.80;;;;;;;;;;5049378;28;20502;-63
2023/10/24 01:03:36;;;;;;;93.57;32.60;;;;;;;;;;5049756;28;20396;-63
2023/10/24 01:06:02;;;;;;;93.03;33.77;;;;;;;;;;5051846;28;20045;-63
2023/10/24 01:08:28;;;;;;;108.20;34.27;;;;;;;;;;5067612;28;20071;-62
2023/10/24 01:10:54;;;;;;;106.20;35.47;;;;;;;;;;5061566;28;20033;-62
2023/10/24 01:13:20;;;;;;;74.47;30.40;;;;;;;;;;5049315;28;20051;-63
2023/10/24 01:15:46;;;;;;;117.97;35.83;;;;;;;;;;5049310;28;20060;-63
2023/10/24 01:18:12;;;;;;;119.43;37.20;;;;;;;;;;5049465;28;20037;-62
2023/10/24 01:20:40;;;;;;;85.83;29.83;;;;;;;;;;5048292;28;20080;-63
2023/10/24 01:23:08;;;;;;;103.03;33.33;;;;;;;;;;5048776;28;20045;-62
2023/10/24 01:25:35;;;;;;;99.20;33.37;;;;;;;;;;5048871;28;20068;-63
2023/10/24 01:28:01;;;;;;;138.23;39.80;;;;;;;;;;5049024;28;20099;-63
2023/10/24 01:30:27;;;;;;;87.63;31.27;;;;;;;;;;5048766;28;20045;-63
2023/10/24 01:32:53;;;;;;;75.87;29.90;;;;;;;;;;5058725;28;20064;-63
2023/10/24 01:35:19;;;;;;;60.73;27.23;;;;;;;;;;5053392;28;20098;-63
2023/10/24 01:37:45;;;;;;;72.87;29.07;;;;;;;;;;5051771;28;20451;-63
2023/10/24 01:40:11;;;;;;;78.63;31.93;;;;;;;;;;5048778;28;20103;-63
2023/10/24 01:42:38;;;;;;;77.70;30.67;;;;;;;;;;5048896;28;20040;-62
2023/10/24 01:45:05;;;;;;;86.73;35.37;;;;;;;;;;5065339;28;20495;-62
2023/10/24 01:47:31;;;;;;;91.63;33.33;;;;;;;;;;5069283;28;20101;-63
2023/10/24 01:49:57;;;;;;;79.70;31.77;;;;;;;;;;5068672;28;20052;-62
2023/10/24 01:52:23;;;;;;;53.33;28.33;;;;;;;;;;5068385;28;20051;-63
2023/10/24 01:54:48;;;;;;;62.37;30.63;;;;;;;;;;5055744;28;20045;-63
2023/10/24 01:57:15;;;;;;;61.87;29.10;;;;;;;;;;5049725;28;20045;-63
2023/10/24 01:59:41;;;;;;;66.13;30.10;;;;;;;;;;5054882;28;20445;-63
2023/10/24 02:02:07;;;;;;;67.27;31.13;;;;;;;;;;5047723;28;20613;-63
2023/10/24 02:04:33;;;;;;;73.10;33.07;;;;;;;;;;5048020;28;20079;-63
2023/10/24 02:06:59;;;;;;;83.27;34.90;;;;;;;;;;5051416;28;20407;-63
2023/10/24 02:09:27;;;;;;;83.80;35.93;;;;;;;;;;5066990;28;20544;-63
2023/10/24 02:11:53;;;;;;;80.73;33.93;;;;;;;;;;5068211;28;20414;-63
2023/10/24 02:14:19;;;;;;;73.47;33.37;;;;;;;;;;5062706;28;20052;-63
2023/10/24 02:16:45;;;;;;;88.67;35.27;;;;;;;;;;5059233;28;20041;-63
2023/10/24 02:19:11;;;;;;;115.23;40.63;;;;;;;;;;5047595;28;20564;-63
2023/10/24 02:21:37;;;;;;;79.67;35.73;;;;;;;;;;5047533;28;20127;-63
2023/10/24 02:24:03;;;;;;;110.80;40.63;;;;;;;;;;5048040;28;20479;-63
2023/10/24 02:26:29;;;;;;;98.87;38.67;;;;;;;;;;5048589;28;20121;-63
2023/10/24 02:28:55;;;;;;;79.57;33.43;;;;;;;;;;5047894;28;20049;-63
2023/10/24 02:31:21;;;;;;;80.40;32.80;;;;;;;;;;5057828;28;20211;-63
2023/10/24 02:33:47;;;;;;;75.93;34.17;;;;;;;;;;5056443;28;20411;-64
2023/10/24 02:36:16;;;;;;;112.03;38.37;;;;;;;;;;5067852;28;20040;-63
2023/10/24 02:38:42;;;;;;;121.70;38.53;;;;;;;;;;5054477;28;20060;-63
2023/10/24 02:41:08;;;;;;;73.83;31.40;;;;;;;;;;5048399;28;20049;-63
2023/10/24 02:43:34;;;;;;;65.63;28.73;;;;;;;;;;5048238;28;20094;-63
2023/10/24 02:46:04;;;;;;;73.23;30.03;;;;;;;;;;5050573;28;20041;-63
2023/10/24 02:48:31;;;;;;;70.07;30.43;;;;;;;;;;5050820;28;20555;-63
2023/10/24 02:50:57;;;;;;;75.67;31.00;;;;;;;;;;5051162;28;20559;-63
2023/10/24 02:53:24;;;;;;;71.33;29.63;;;;;;;;;;5051884;28;20045;-63
2023/10/24 02:55:50;;;;;;;66.80;28.83;;;;;;;;;;5052225;28;20090;-63
2023/10/24 02:58:17;;;;;;;66.57;29.03;;;;;;;;;;5051761;28;20041;-63
2023/10/24 03:00:44;;;;;;;90.70;34.63;;;;;;;;;;5051902;28;20518;-63
2023/10/24 03:03:10;;;;;;;60.07;26.80;;;;;;;;;;5066804;28;20079;-63
2023/10/24 03:05:36;;;;;;;60.67;27.47;;;;;;;;;;5071917;28;20040;-63
2023/10/24 03:08:03;;;;;;;71.07;29.43;;;;;;;;;;5071753;28;20128;-63
2023/10/24 03:10:29;;;;;;;63.73;27.53;;;;;;;;;;5071176;28;20052;-63
2023/10/24 03:12:56;;;;;;;66.43;29.67;;;;;;;;;;5071819;28;20086;-63
2023/10/24 03:15:22;;;;;;;70.37;29.33;;;;;;;;;;5060975;28;20606;-63
2023/10/24 03:17:48;;;;;;;68.87;30.00;;;;;;;;;;5051602;28;20036;-63
2023/10/24 03:20:14;;;;;;;61.27;29.23;;;;;;;;;;5052071;28;20514;-63
2023/10/24 03:22:40;;;;;;;77.97;33.07;;;;;;;;;;5051343;28;20052;-63
2023/10/24 03:25:07;;;;;;;73.60;30.30;;;;;;;;;;5051478;28;20048;-63
2023/10/24 03:27:33;;;;;;;85.77;33.30;;;;;;;;;;5054765;28;20055;-63
2023/10/24 03:30:00;;;;;;;60.50;28.73;;;;;;;;;;5071431;28;20036;-63
2023/10/24 03:32:27;;;;;;;57.57;29.53;;;;;;;;;;5060923;28;20128;-63
2023/10/24 03:34:53;;;;;;;53.73;28.63;;;;;;;;;;5049722;28;20044;-63
2023/10/24 03:37:20;;;;;;;47.90;27.33;;;;;;;;;;5065362;28;20045;-63
2023/10/24 03:39:46;;;;;;;59.23;30.67;;;;;;;;;;5070777;28;20091;-63
2023/10/24 03:42:15;;;;;;;55.33;30.37;;;;;;;;;;5057983;28;20052;-63
2023/10/24 03:44:42;;;;;;;45.57;26.83;;;;;;;;;;5050598;28;20052;-63
2023/10/24 03:47:08;;;;;;;50.20;27.57;;;;;;;;;;5064167;28;20418;-63
2023/10/24 03:49:34;;;;;;;45.20;27.03;;;;;;;;;;5066884;28;20060;-63
2023/10/24 03:52:00;;;;;;;43.50;26.07;;;;;;;;;;5054342;28;20466;-63
2023/10/24 03:54:27;;;;;;;45.00;27.80;;;;;;;;;;5051778;28;20056;-63
2023/10/24 03:56:53;;;;;;;48.93;27.73;;;;;;;;;;5052948;28;20048;-63
2023/10/24 03:59:19;;;;;;;43.37;25.37;;;;;;;;;;5070358;28;20040;-62
2023/10/24 04:01:45;;;;;;;38.83;24.60;;;;;;;;;;5070432;28;20052;-62
2023/10/24 04:04:11;;;;;;;48.87;27.57;;;;;;;;;;5069803;28;20052;-63
2023/10/24 04:06:37;;;;;;;37.83;24.20;;;;;;;;;;5070677;28;20494;-63
2023/10/24 04:09:06;;;;;;;37.33;24.37;;;;;;;;;;5067562;28;20041;-63
2023/10/24 04:11:33;;;;;;;40.27;24.50;;;;;;;;;;5066044;28;20048;-65
2023/10/24 04:13:59;;;;;;;32.90;19.73;;;;;;;;;;5050331;28;20514;-65
2023/10/24 04:16:25;;;;;;;34.40;20.90;;;;;;;;;;5050538;28;20048;-64
2023/10/24 04:18:51;;;;;;;27.73;20.03;;;;;;;;;;5050552;28;20084;-62
2023/10/24 04:21:18;;;;;;;32.53;20.87;;;;;;;;;;5050503;28;20045;-62
2023/10/24 04:23:44;;;;;;;31.77;21.00;;;;;;;;;;5050106;28;20155;-63
2023/10/24 04:26:10;;;;;;;37.17;20.20;;;;;;;;;;5050868;28;20081;-62
2023/10/24 04:28:38;;;;;;;29.13;19.30;;;;;;;;;;5050933;28;20044;-63
2023/10/24 04:31:04;;;;;;;38.53;19.17;;;;;;;;;;5050147;28;20095;-62
2023/10/24 04:33:30;;;;;;;31.43;19.43;;;;;;;;;;5050187;28;20056;-63
2023/10/24 04:35:57;;;;;;;30.93;19.30;;;;;;;;;;5049959;28;20045;-62
2023/10/24 04:38:23;;;;;;;39.20;21.27;;;;;;;;;;5049751;28;20085;-63
2023/10/24 04:40:52;;;;;;;30.30;18.17;;;;;;;;;;5050433;28;20048;-63
2023/10/24 04:43:18;;;;;;;23.10;16.10;;;;;;;;;;5050196;28;20084;-62
2023/10/24 04:45:45;;;;;;;25.33;17.30;;;;;;;;;;5049829;28;20060;-62
2023/10/24 04:48:11;;;;;;;25.20;16.33;;;;;;;;;;5056236;28;20059;-62
2023/10/24 04:50:41;;;;;;;20.60;15.00;;;;;;;;;;5069369;28;20103;-63
2023/10/24 04:53:07;;;;;;;31.47;17.57;;;;;;;;;;5069788;28;20048;-62
2023/10/24 04:55:33;;;;;;;24.53;16.10;;;;;;;;;;5058081;28;20155;-63
2023/10/24 04:58:00;;;;;;;24.43;15.93;;;;;;;;;;5089619;28;20075;-63
2023/10/24 05:00:26;;;;;;;22.17;14.90;;;;;;;;;;5087967;28;20048;-63
2023/10/24 05:02:53;;;;;;;26.03;17.57;;;;;;;;;;5069117;28;20045;-63
2023/10/24 05:05:19;;;;;;;20.67;13.77;;;;;;;;;;5069406;28;20044;-62
2023/10/24 05:07:45;;;;;;;24.40;14.43;;;;;;;;;;5068131;28;20048;-62
2023/10/24 05:10:11;;;;;;;21.03;12.67;;;;;;;;;;5058038;28;20084;-62
2023/10/24 05:12:40;;;;;;;28.33;14.20;;;;;;;;;;5049702;28;20076;-62
2023/10/24 05:15:06;;;;;;;21.40;13.73;;;;;;;;;;5049357;28;20409;-62
2023/10/24 05:17:32;;;;;;;22.43;13.03;;;;;;;;;;5050531;28;20044;-63
2023/10/24 05:20:03;;;;;;;19.63;12.97;;;;;;;;;;5069635;28;20040;-62
2023/10/24 05:22:29;;;;;;;19.73;13.30;;;;;;;;;;5068765;28;20063;-62
2023/10/24 05:24:55;;;;;;;18.43;13.10;;;;;;;;;;5057810;28;20415;-63
2023/10/24 05:27:21;;;;;;;18.33;12.20;;;;;;;;;;5048851;28;20044;-63
2023/10/24 05:29:47;;;;;;;24.97;15.53;;;;;;;;;;5053122;28;20137;-62
2023/10/24 05:32:13;;;;;;;23.50;14.13;;;;;;;;;;5060296;28;20097;-62
2023/10/24 05:34:39;;;;;;;21.10;13.80;;;;;;;;;;5064773;28;20090;-62
2023/10/24 05:37:05;;;;;;;21.80;13.90;;;;;;;;;;5065647;28;20414;-63
2023/10/24 05:39:31;;;;;;;28.47;15.57;;;;;;;;;;5068765;28;20064;-63
2023/10/24 05:41:57;;;;;;;22.83;14.87;;;;;;;;;;5069175;28;20052;-63
2023/10/24 05:44:24;;;;;;;18.20;12.83;;;;;;;;;;5069424;28;20052;-63
2023/10/24 05:46:50;;;;;;;24.03;14.63;;;;;;;;;;5068740;28;20041;-62
2023/10/24 05:49:17;;;;;;;21.80;13.37;;;;;;;;;;5068931;28;20499;-63
2023/10/24 05:51:43;;;;;;;26.50;15.20;;;;;;;;;;5067352;28;20048;-63
2023/10/24 05:54:09;;;;;;;22.70;16.00;;;;;;;;;;5068583;28;20044;-62
2023/10/24 05:56:35;;;;;;;29.13;16.43;;;;;;;;;;5069115;28;20052;-62
2023/10/24 05:59:01;;;;;;;23.03;15.43;;;;;;;;;;5060590;28;20045;-63
2023/10/24 06:01:27;;;;;;;23.53;14.30;;;;;;;;;;5060242;28;20106;-63
2023/10/24 06:03:53;;;;;;;21.27;13.80;;;;;;;;;;5068713;28;20117;-63
2023/10/24 06:06:20;;;;;;;28.03;16.30;;;;;;;;;;5068470;28;20040;-63
2023/10/24 06:08:46;;;;;;;25.07;16.00;;;;;;;;;;5066869;28;20056;-63
2023/10/24 06:11:15;;;;;;;21.37;14.10;;;;;;;;;;5068479;28;20052;-62
2023/10/24 06:13:41;;;;;;;22.57;13.47;;;;;;;;;;5061547;28;20041;-63
2023/10/24 06:16:11;;;;;;;21.87;13.10;;;;;;;;;;5048600;28;20048;-62
2023/10/24 06:18:37;;;;;;;20.97;14.30;;;;;;;;;;5048324;28;20037;-63
2023/10/24 06:21:04;;;;;;;19.03;12.93;;;;;;;;;;5049734;28;20119;-63
2023/10/24 06:23:30;;;;;;;18.73;13.43;;;;;;;;;;5052733;28;20124;-62
2023/10/24 06:25:56;;;;;;;18.60;12.43;;;;;;;;;;5053056;28;20114;-63
2023/10/24 06:28:23;;;;;;;22.07;14.93;;;;;;;;;;5060911;28;20052;-62
2023/10/24 06:30:49;;;;;;;18.03;13.10;;;;;;;;;;5052087;28;20045;-62
2023/10/24 06:33:15;;;;;;;19.07;11.70;;;;;;;;;;5052641;28;20495;-63
2023/10/24 06:35:41;;;;;;;22.50;13.57;;;;;;;;;;5051169;28;20044;-63
2023/10/24 06:38:07;;;;;;;16.37;10.90;;;;;;;;;;5051182;28;20053;-62
2023/10/24 06:40:33;;;;;;;29.03;15.17;;;;;;;;;;5051836;28;20048;-63
2023/10/24 06:43:02;;;;;;;23.23;13.70;;;;;;;;;;5057370;28;20406;-63
2023/10/24 06:45:28;;;;;;;25.50;13.97;;;;;;;;;;5072085;28;20052;-63
2023/10/24 06:47:54;;;;;;;20.73;12.43;;;;;;;;;;5072021;28;20094;-63
2023/10/24 06:50:20;;;;;;;19.50;12.90;;;;;;;;;;5070761;28;20098;-62
2023/10/24 06:52:46;;;;;;;19.43;11.67;;;;;;;;;;5071578;28;20494;-62
2023/10/24 06:55:12;;;;;;;17.43;11.93;;;;;;;;;;5072243;28;20036;-62
2023/10/24 06:57:38;;;;;;;19.40;12.00;;;;;;;;;;5062418;28;20041;-63
2023/10/24 07:00:05;;;;;;;17.63;11.83;;;;;;;;;;5057190;28;20083;-63
2023/10/24 07:02:33;;;;;;;18.80;11.77;;;;;;;;;;5071218;28;20050;-63
2023/10/24 07:05:00;;;;;;;16.60;11.30;;;;;;;;;;5060086;28;20140;-63
2023/10/24 07:07:26;;;;;;;19.43;12.03;;;;;;;;;;5052298;28;20044;-63
2023/10/24 07:09:52;;;;;;;19.47;11.17;;;;;;;;;;5051270;28;20064;-63
2023/10/24 07:12:18;;;;;;;22.93;13.57;;;;;;;;;;5051194;28;20186;-63
2023/10/24 07:14:44;;;;;;;21.93;12.13;;;;;;;;;;5050960;28;20037;-63
2023/10/24 07:17:10;;;;;;;19.63;11.57;;;;;;;;;;5051123;28;20048;-63
2023/10/24 07:19:37;;;;;;;27.43;12.57;;;;;;;;;;5051418;28;20077;-63
2023/10/24 07:22:03;;;;;;;27.23;13.97;;;;;;;;;;5051250;28;20168;-63
2023/10/24 07:24:29;;;;;;;23.60;12.70;;;;;;;;;;5050371;28;20473;-62
2023/10/24 07:26:55;;;;;;;19.97;12.07;;;;;;;;;;5062341;28;20510;-63
2023/10/24 07:29:23;;;;;;;18.07;11.77;;;;;;;;;;5060166;28;20037;-63
2023/10/24 07:31:49;;;;;;;19.93;11.70;;;;;;;;;;5049621;28;20048;-63
2023/10/24 07:34:15;;;;;;;28.77;14.03;;;;;;;;;;5050727;28;20037;-62
2023/10/24 07:36:41;;;;;;;20.23;12.60;;;;;;;;;;5050531;28;20125;-63
2023/10/24 07:39:07;;;;;;;24.90;13.63;;;;;;;;;;5055430;28;20160;-63
2023/10/24 07:41:33;;;;;;;21.23;13.03;;;;;;;;;;5070442;28;20151;-62
2023/10/24 07:43:59;;;;;;;25.40;13.90;;;;;;;;;;5068824;28;20041;-62
2023/10/24 07:46:25;;;;;;;21.90;12.53;;;;;;;;;;5051557;28;20061;-62
2023/10/24 07:48:52;;;;;;;22.93;13.77;;;;;;;;;;5050254;28;20060;-63
2023/10/24 07:51:19;;;;;;;27.77;13.13;;;;;;;;;;5049275;28;20049;-63
2023/10/24 07:53:45;;;;;;;24.20;13.60;;;;;;;;;;5048300;28;20053;-62
2023/10/24 07:56:11;;;;;;;22.07;12.83;;;;;;;;;;5050992;28;20120;-62
2023/10/24 07:58:37;;;;;;;26.33;13.53;;;;;;;;;;5049744;28;20099;-63
2023/10/24 08:01:04;;;;;;;24.83;13.23;;;;;;;;;;5049699;28;20049;-62
2023/10/24 08:03:30;;;;;;;21.17;12.73;;;;;;;;;;5049740;28;20049;-63
2023/10/24 08:05:56;;;;;;;22.47;12.47;;;;;;;;;;5050411;28;20075;-62
2023/10/24 08:08:22;;;;;;;27.00;13.37;;;;;;;;;;5051269;28;20364;-62
2023/10/24 08:10:48;;;;;;;25.47;12.97;;;;;;;;;;5055084;28;20577;-62
2023/10/24 08:13:14;;;;;;;22.33;13.90;;;;;;;;;;5068381;28;20037;-63
2023/10/24 08:15:40;;;;;;;27.00;14.60;;;;;;;;;;5059754;28;20526;-62
2023/10/24 08:18:06;;;;;;;22.83;12.70;;;;;;;;;;5049641;28;20044;-62
2023/10/24 08:20:32;;;;;;;20.83;13.17;;;;;;;;;;5049913;28;20090;-62
2023/10/24 08:22:58;;;;;;;19.40;12.57;;;;;;;;;;5060250;28;20127;-62
2023/10/24 08:25:24;;;;;;;21.10;13.17;;;;;;;;;;5067889;28;20456;-62
2023/10/24 08:27:50;;;;;;;21.60;13.70;;;;;;;;;;5068537;28;20048;-62
2023/10/24 08:30:16;;;;;;;25.33;14.30;;;;;;;;;;5069047;28;20422;-63
2023/10/24 08:32:42;;;;;;;21.00;13.40;;;;;;;;;;5052422;28;20087;-62
2023/10/24 08:35:08;;;;;;;17.67;12.57;;;;;;;;;;5049049;28;20560;-62
2023/10/24 08:37:35;;;;;;;23.00;12.60;;;;;;;;;;5056687;28;20066;-62
2023/10/24 08:40:01;;;;;;;15.77;11.50;;;;;;;;;;5055453;28;20049;-62
2023/10/24 08:42:29;;;;;;;20.20;12.20;;;;;;;;;;5069146;28;20048;-62
2023/10/24 08:44:55;;;;;;;17.13;11.57;;;;;;;;;;5068735;28;20044;-62
2023/10/24 08:47:22;;;;;;;16.87;11.10;;;;;;;;;;5069119;28;20123;-62
2023/10/24 08:49:48;;;;;;;18.80;12.77;;;;;;;;;;5066482;28;20182;-62
2023/10/24 08:52:14;;;;;;;18.43;11.00;;;;;;;;;;5050116;28;20052;-62
2023/10/24 08:54:40;;;;;;;18.60;11.77;;;;;;;;;;5048765;28;20045;-62
2023/10/24 08:57:07;;;;;;;16.60;11.33;;;;;;;;;;5048798;28;20080;-62
2023/10/24 08:59:37;;;;;;;14.27;10.00;;;;;;;;;;5048845;28;20051;-62
2023/10/24 09:02:03;;;;;;;18.90;12.23;;;;;;;;;;5049456;28;20056;-62
2023/10/24 09:04:31;;;;;;;14.37;10.70;;;;;;;;;;5051594;28;20037;-62
2023/10/24 09:06:57;;;;;;;21.17;11.77;;;;;;;;;;5069168;28;20045;-62
2023/10/24 09:09:24;;;;;;;17.83;11.20;;;;;;;;;;5068621;28;20050;-62
2023/10/24 09:11:53;;;;;;;17.03;11.20;;;;;;;;;;5069178;28;20132;-63
2023/10/24 09:14:20;;;;;;;18.17;11.13;;;;;;;;;;5065936;28;20053;-62
2023/10/24 09:16:52;;;;;;;17.07;11.30;;;;;;;;;;5050994;28;20598;-62
2023/10/24 09:19:18;;;;;;;18.50;11.87;;;;;;;;;;5048732;28;20128;-62
2023/10/24 09:21:44;;;;;;;19.47;11.73;;;;;;;;;;5048176;28;20131;-62
2023/10/24 09:24:12;;;;;;;15.47;11.47;;;;;;;;;;5048578;28;20086;-63
2023/10/24 09:26:38;;;;;;;15.60;10.87;;;;;;;;;;5048846;28;20052;-62
2023/10/24 09:29:08;;;;;;;16.57;11.33;;;;;;;;;;5048461;28;20708;-62
2023/10/24 09:31:34;;;;;;;14.83;10.97;;;;;;;;;;5050078;28;20120;-62
2023/10/24 09:34:00;;;;;;;19.20;12.20;;;;;;;;;;5048179;28;20076;-62
2023/10/24 09:36:26;;;;;;;12.07;9.27;;;;;;;;;;5047973;28;20080;-63
2023/10/24 09:38:54;;;;;;;13.83;10.00;;;;;;;;;;5048506;28;20080;-62
2023/10/24 09:41:20;;;;;;;15.63;10.73;;;;;;;;;;5048642;28;20052;-62
2023/10/24 09:43:48;;;;;;;15.23;9.80;;;;;;;;;;5047874;28;20128;-62
2023/10/24 09:46:16;;;;;;;15.33;10.20;;;;;;;;;;5067137;28;20041;-62
2023/10/24 09:48:43;;;;;;;12.40;9.00;;;;;;;;;;5068131;28;20045;-62
2023/10/24 09:51:09;;;;;;;16.40;10.40;;;;;;;;;;5068028;28;20040;-62
2023/10/24 09:53:36;;;;;;;11.87;9.00;;;;;;;;;;5067904;28;20430;-62
2023/10/24 09:56:03;;;;;;;14.17;8.90;;;;;;;;;;5067180;28;20040;-62
2023/10/24 09:58:29;;;;;;;14.20;9.63;;;;;;;;;;5058018;28;20737;-62
2023/10/24 10:00:56;;;;;;;13.87;10.00;;;;;;;;;;5048083;28;20056;-62
2023/10/24 10:03:22;;;;;;;17.27;10.07;;;;;;;;;;5046977;28;21055;-62
2023/10/24 10:05:48;;;;;;;11.77;9.47;;;;;;;;;;5048366;28;20041;-62
2023/10/24 10:08:18;;;;;;;11.43;9.13;;;;;;;;;;5048280;28;20049;-62
2023/10/24 10:10:46;;;;;;;14.63;9.97;;;;;;;;;;5049778;28;20115;-62
2023/10/24 10:13:13;;;;;;;13.00;9.43;;;;;;;;;;5064322;28;20049;-62
2023/10/24 10:15:42;;;;;;;13.23;9.47;;;;;;;;;;5050149;28;20146;-62
2023/10/24 10:18:08;;;;;;;11.73;9.37;;;;;;;;;;5048727;28;20047;-62
2023/10/24 10:20:54;;;;;;;13.30;10.03;;;;;;;;;;5068315;28;20142;-62
2023/10/24 10:23:39;;;;;;;14.93;9.17;;;;;;;;;;5058257;28;20551;-62
2023/10/24 10:26:24;;;;;;;14.97;9.50;;;;;;;;;;5058456;28;20040;-62
2023/10/24 10:29:09;;;;;;;11.33;8.67;;;;;;;;;;5054956;28;20044;-62
2023/10/24 10:31:38;;;;;;;10.97;8.27;;;;;;;;;;5046558;28;20041;-62
2023/10/24 10:34:04;;;;;;;13.53;10.00;;;;;;;;;;5046583;28;20052;-62
2023/10/24 10:36:30;;;;;;;12.53;9.30;;;;;;;;;;5046324;28;20045;-62
2023/10/24 10:39:05;;;;;;;16.53;10.63;;;;;;;;;;5047009;28;20106;-62
2023/10/24 10:41:32;;;;;;;10.57;8.70;;;;;;;;;;5062940;28;20046;-62
2023/10/24 10:44:02;;;;;;;9.93;8.80;;;;;;;;;;5062536;28;20128;-62
2023/10/24 10:46:29;;;;;;;14.60;8.80;;;;;;;;;;5048338;28;20526;-62
2023/10/24 10:48:59;;;;;;;10.80;8.60;;;;;;;;;;5048186;28;20118;-62
2023/10/24 10:51:36;;;;;;;10.53;8.70;;;;;;;;;;5047084;28;20039;-62
2023/10/24 10:54:17;;;;;;;12.63;8.70;;;;;;;;;;5067874;28;20464;-62
2023/10/24 10:56:44;;;;;;;11.63;7.63;;;;;;;;;;5065433;28;20037;-63
2023/10/24 10:59:31;;;;;;;9.10;8.00;;;;;;;;;;5065436;28;20052;-62
2023/10/24 11:02:00;;;;;;;10.03;7.67;;;;;;;;;;5057111;28;20129;-62
2023/10/24 11:04:27;;;;;;;9.87;8.30;;;;;;;;;;5047437;28;20441;-63
2023/10/24 11:06:54;;;;;;;8.70;7.73;;;;;;;;;;5048711;28;20052;-62
2023/10/24 11:09:21;;;;;;;10.47;8.10;;;;;;;;;;5050929;28;20056;-62
2023/10/24 11:11:47;;;;;;;10.37;8.67;;;;;;;;;;5051041;28;20077;-62
2023/10/24 11:14:17;;;;;;;11.20;9.17;;;;;;;;;;5049927;28;20040;-62
2023/10/24 11:16:44;;;;;;;10.93;8.90;;;;;;;;;;5051303;28;20045;-64
2023/10/24 11:19:20;;;;;;;10.07;8.80;;;;;;;;;;5050513;28;20041;-62
2023/10/24 11:21:51;;;;;;;11.27;10.10;;;;;;;;;;5051358;28;20044;-62
2023/10/24 11:24:20;;;;;;;11.20;8.93;;;;;;;;;;5051047;28;20474;-63
2023/10/24 11:26:46;;;;;;;10.47;8.57;;;;;;;;;;5051323;28;20045;-62
2023/10/24 11:29:15;;;;;;;11.50;8.10;;;;;;;;;;5068671;28;20051;-62
2023/10/24 11:31:47;;;;;;;11.27;8.03;;;;;;;;;;5071098;28;20052;-62
2023/10/24 11:34:13;;;;;;;9.57;8.30;;;;;;;;;;5070783;28;20183;-62
2023/10/24 11:36:40;;;;;;;7.87;7.07;;;;;;;;;;5070388;28;20506;-62
2023/10/24 11:39:07;;;;;;;9.93;7.23;;;;;;;;;;5070315;28;20196;-62
2023/10/24 11:41:33;;;;;;;8.70;7.50;;;;;;;;;;5052486;28;20106;-62
2023/10/24 11:43:59;;;;;;;12.57;6.87;;;;;;;;;;5069092;28;20048;-63
2023/10/24 11:46:25;;;;;;;9.70;6.50;;;;;;;;;;5070557;28;20043;-62
2023/10/24 11:48:51;;;;;;;7.87;6.53;;;;;;;;;;5070288;28;20048;-63
2023/10/24 11:51:17;;;;;;;8.43;6.77;;;;;;;;;;5070680;28;20180;-63
2023/10/24 11:53:44;;;;;;;8.60;5.93;;;;;;;;;;5059518;28;20056;-63
2023/10/24 11:56:10;;;;;;;8.27;6.40;;;;;;;;;;5049995;28;20049;-62
2023/10/24 11:58:36;;;;;;;10.03;6.97;;;;;;;;;;5050307;28;21074;-62
2023/10/24 12:01:03;;;;;;;9.77;6.97;;;;;;;;;;5050396;28;20127;-63
2023/10/24 12:03:45;;;;;;;8.03;6.87;;;;;;;;;;5050025;28;20060;-63
2023/10/24 12:06:11;;;;;;;9.23;6.40;;;;;;;;;;5050354;28;20051;-62
2023/10/24 12:08:37;;;;;;;7.00;6.30;;;;;;;;;;5050885;28;20406;-63
2023/10/24 12:11:03;;;;;;;9.03;6.30;;;;;;;;;;5050491;28;20045;-63
2023/10/24 12:13:30;;;;;;;8.07;7.20;;;;;;;;;;5049667;28;20055;-62
2023/10/24 12:15:56;;;;;;;8.10;6.33;;;;;;;;;;5050053;28;20099;-65
2023/10/24 12:18:23;;;;;;;9.23;6.43;;;;;;;;;;5048671;28;20071;-62
2023/10/24 12:20:49;;;;;;;7.37;6.43;;;;;;;;;;5050646;28;20092;-62
2023/10/24 12:23:16;;;;;;;7.13;6.30;;;;;;;;;;5049663;28;20071;-63
2023/10/24 12:25:42;;;;;;;9.20;6.60;;;;;;;;;;5049537;28;20133;-62
2023/10/24 12:28:08;;;;;;;7.13;5.63;;;;;;;;;;5050062;28;20059;-63
2023/10/24 12:30:35;;;;;;;7.30;5.93;;;;;;;;;;5049688;28;20057;-62
2023/10/24 12:33:01;;;;;;;6.70;5.87;;;;;;;;;;5049660;28;20055;-62
2023/10/24 12:35:27;;;;;;;6.47;5.77;;;;;;;;;;5049651;28;20095;-62
2023/10/24 12:37:53;;;;;;;7.33;5.60;;;;;;;;;;5049025;28;20068;-62
2023/10/24 12:40:19;;;;;;;7.47;5.63;;;;;;;;;;5049318;28;20045;-63
2023/10/24 12:42:45;;;;;;;12.23;5.27;;;;;;;;;;5049448;28;20048;-62
2023/10/24 12:45:11;;;;;;;10.53;5.13;;;;;;;;;;5048781;28;20132;-62
2023/10/24 12:47:37;;;;;;;7.67;5.87;;;;;;;;;;5049262;28;20140;-62
2023/10/24 12:50:04;;;;;;;8.23;5.33;;;;;;;;;;5049488;28;20075;-62
2023/10/24 12:52:30;;;;;;;6.90;5.17;;;;;;;;;;5049047;28;20041;-62
2023/10/24 12:54:56;;;;;;;9.73;4.90;;;;;;;;;;5048986;28;20514;-62
2023/10/24 12:57:22;;;;;;;11.00;5.03;;;;;;;;;;5048958;28;20044;-62
2023/10/24 12:59:48;;;;;;;6.43;4.93;;;;;;;;;;5049188;28;20105;-62
2023/10/24 13:02:15;;;;;;;6.77;4.23;;;;;;;;;;5048769;28;20185;-62
2023/10/24 13:04:44;;;;;;;6.63;4.90;;;;;;;;;;5048573;28;20037;-63
2023/10/24 13:07:15;;;;;;;7.47;4.70;;;;;;;;;;5049240;28;20124;-65
2023/10/24 13:09:42;;;;;;;5.23;4.53;;;;;;;;;;5048890;28;20052;-62
2023/10/24 13:12:08;;;;;;;6.50;4.17;;;;;;;;;;5049183;28;20095;-62
2023/10/24 13:14:34;;;;;;;4.63;3.93;;;;;;;;;;5048819;28;20049;-62
2023/10/24 13:17:01;;;;;;;7.30;4.07;;;;;;;;;;5048864;28;20075;-62
2023/10/24 13:19:30;;;;;;;6.60;3.77;;;;;;;;;;5049181;28;20052;-62
2023/10/24 13:21:56;;;;;;;7.40;3.80;;;;;;;;;;5049085;28;20049;-62
2023/10/24 13:24:23;;;;;;;5.90;3.77;;;;;;;;;;5048834;28;20044;-62
2023/10/24 13:26:49;;;;;;;6.40;4.23;;;;;;;;;;5048413;28;20048;-62
2023/10/24 13:29:15;;;;;;;6.60;4.13;;;;;;;;;;5053052;28;20036;-62
2023/10/24 13:31:42;;;;;;;10.10;4.57;;;;;;;;;;5067556;28;20173;-62
2023/10/24 13:34:08;;;;;;;5.40;4.50;;;;;;;;;;5068738;28;20063;-62
2023/10/24 13:36:34;;;;;;;8.30;5.00;;;;;;;;;;5067833;28;20072;-62
2023/10/24 13:39:00;;;;;;;7.70;5.17;;;;;;;;;;5067678;28;20052;-62
2023/10/24 13:41:26;;;;;;;10.00;5.43;;;;;;;;;;5068092;28;20472;-62
2023/10/24 13:43:52;;;;;;;6.33;4.93;;;;;;;;;;5063930;28;20179;-62
2023/10/24 13:46:18;;;;;;;8.17;5.30;;;;;;;;;;5047890;28;20056;-62
2023/10/24 13:48:44;;;;;;;10.53;5.17;;;;;;;;;;5047176;28;20217;-62
2023/10/24 13:51:11;;;;;;;7.83;5.47;;;;;;;;;;5048683;28;20041;-62
2023/10/24 13:53:39;;;;;;;8.37;5.50;;;;;;;;;;5048101;28;20053;-62
2023/10/24 13:56:05;;;;;;;8.63;6.03;;;;;;;;;;5046886;28;20041;-62
2023/10/24 13:58:31;;;;;;;9.03;6.43;;;;;;;;;;5048265;28;20037;-63
2023/10/24 14:00:57;;;;;;;12.13;7.27;;;;;;;;;;5047819;28;20045;-62
2023/10/24 14:03:23;;;;;;;10.57;7.73;;;;;;;;;;5048255;28;20392;-62
2023/10/24 14:05:49;;;;;;;12.33;7.60;;;;;;;;;;5048659;28;20056;-62
2023/10/24 14:08:15;;;;;;;14.50;9.23;;;;;;;;;;5048052;28;20045;-62
2023/10/24 14:10:41;;;;;;;11.50;9.30;;;;;;;;;;5047624;28;20574;-62
2023/10/24 14:13:08;;;;;;;11.13;8.77;;;;;;;;;;5047952;28;20044;-62
2023/10/24 14:15:34;;;;;;;14.33;9.83;;;;;;;;;;5048256;28;20041;-62
2023/10/24 14:18:00;;;;;;;14.17;9.80;;;;;;;;;;5048103;28;20124;-62
2023/10/24 14:20:26;;;;;;;11.83;9.10;;;;;;;;;;5048021;28;20124;-62